sensor_id;sensor_type;location;lat;lon;timestamp;pressure;altitude;pressure_sealevel;temperature;humidity
75699;BME280;64313;51.018;13.742;2023-02-28T00:00:29;101061.38;;;0.62;75.38
75699;BME280;64313;51.018;13.742;2023-02-28T00:02:54;101059.72;;;0.61;75.31
75699;BME280;64313;51.018;13.742;2023-02-28T00:05:21;101063.28;;;0.60;75.32
75699;BME280;64313;51.018;13.742;2023-02-28T00:07:47;101072.03;;;0.61;75.53
75699;BME280;64313;51.018;13.742;2023-02-28T00:10:17;101066.78;;;0.61;75.75
75699;BME280;64313;51.018;13.742;2023-02-28T00:12:53;101066.03;;;0.59;75.21
75699;BME280;64313;51.018;13.742;2023-02-28T00:15:19;101071.28;;;0.59;75.52
75699;BME280;64313;51.018;13.742;2023-02-28T00:17:45;101067.81;;;0.58;75.61
75699;BME280;64313;51.018;13.742;2023-02-28T00:20:12;101066.03;;;0.59;74.96
75699;BME280;64313;51.018;13.742;2023-02-28T00:22:45;101068.75;;;0.57;75.06
75699;BME280;64313;51.018;13.742;2023-02-28T00:25:13;101071.38;;;0.57;75.68
75699;BME280;64313;51.018;13.742;2023-02-28T00:27:39;101063.47;;;0.57;75.39
75699;BME280;64313;51.018;13.742;2023-02-28T00:30:06;101058.97;;;0.59;75.27
75699;BME280;64313;51.018;13.742;2023-02-28T00:32:33;101059.94;;;0.58;75.12
75699;BME280;64313;51.018;13.742;2023-02-28T00:35:00;101057.28;;;0.58;75.29
75699;BME280;64313;51.018;13.742;2023-02-28T00:37:26;101060.84;;;0.57;75.31
75699;BME280;64313;51.018;13.742;2023-02-28T00:39:51;101055.88;;;0.53;75.18
75699;BME280;64313;51.018;13.742;2023-02-28T00:42:16;101063.78;;;0.53;75.65
75699;BME280;64313;51.018;13.742;2023-02-28T00:44:42;101055.88;;;0.53;75.76
75699;BME280;64313;51.018;13.742;2023-02-28T00:47:07;101056.09;;;0.50;75.96
75699;BME280;64313;51.018;13.742;2023-02-28T00:49:32;101062.09;;;0.52;75.60
75699;BME280;64313;51.018;13.742;2023-02-28T00:51:58;101054.31;;;0.50;75.32
75699;BME280;64313;51.018;13.742;2023-02-28T00:54:25;101063.16;;;0.49;74.63
75699;BME280;64313;51.018;13.742;2023-02-28T00:56:50;101064.94;;;0.49;75.03
75699;BME280;64313;51.018;13.742;2023-02-28T00:59:16;101060.63;;;0.48;75.22
75699;BME280;64313;51.018;13.742;2023-02-28T01:01:44;101058.09;;;0.46;74.92
75699;BME280;64313;51.018;13.742;2023-02-28T01:04:10;101053.69;;;0.47;75.21
75699;BME280;64313;51.018;13.742;2023-02-28T01:06:36;101053.75;;;0.45;75.09
75699;BME280;64313;51.018;13.742;2023-02-28T01:09:03;101059.03;;;0.45;75.20
75699;BME280;64313;51.018;13.742;2023-02-28T01:11:29;101058.19;;;0.45;74.84
75699;BME280;64313;51.018;13.742;2023-02-28T01:13:54;101063.44;;;0.45;74.85
75699;BME280;64313;51.018;13.742;2023-02-28T01:16:19;101058.09;;;0.46;75.13
75699;BME280;64313;51.018;13.742;2023-02-28T01:18:45;101058.09;;;0.46;74.82
75699;BME280;64313;51.018;13.742;2023-02-28T01:21:13;101052.00;;;0.46;75.12
75699;BME280;64313;51.018;13.742;2023-02-28T01:23:39;101050.09;;;0.48;74.79
75699;BME280;64313;51.018;13.742;2023-02-28T01:26:07;101051.88;;;0.47;74.13
75699;BME280;64313;51.018;13.742;2023-02-28T01:28:33;101045.78;;;0.47;73.90
75699;BME280;64313;51.018;13.742;2023-02-28T01:30:58;101046.00;;;0.43;73.66
75699;BME280;64313;51.018;13.742;2023-02-28T01:33:24;101049.47;;;0.44;74.20
75699;BME280;64313;51.018;13.742;2023-02-28T01:35:59;101047.78;;;0.43;73.58
75699;BME280;64313;51.018;13.742;2023-02-28T01:38:24;101040.00;;;0.41;74.10
75699;BME280;64313;51.018;13.742;2023-02-28T01:40:50;101046.19;;;0.40;73.77
75699;BME280;64313;51.018;13.742;2023-02-28T01:43:27;101044.63;;;0.38;73.88
75699;BME280;64313;51.018;13.742;2023-02-28T01:45:55;101040.19;;;0.38;73.89
75699;BME280;64313;51.018;13.742;2023-02-28T01:48:26;101048.19;;;0.37;74.46
75699;BME280;64313;51.018;13.742;2023-02-28T01:50:54;101039.53;;;0.35;73.68
75699;BME280;64313;51.018;13.742;2023-02-28T01:53:26;101047.44;;;0.35;74.28
75699;BME280;64313;51.018;13.742;2023-02-28T01:55:55;101044.78;;;0.35;74.54
75699;BME280;64313;51.018;13.742;2023-02-28T01:58:21;101042.28;;;0.33;74.25
75699;BME280;64313;51.018;13.742;2023-02-28T02:00:47;101036.28;;;0.31;74.15
75699;BME280;64313;51.018;13.742;2023-02-28T02:03:14;101040.69;;;0.31;73.74
75699;BME280;64313;51.018;13.742;2023-02-28T02:05:44;101035.75;;;0.26;73.39
75699;BME280;64313;51.018;13.742;2023-02-28T02:08:22;101033.94;;;0.27;73.39
75699;BME280;64313;51.018;13.742;2023-02-28T02:10:50;101037.53;;;0.26;74.01
75699;BME280;64313;51.018;13.742;2023-02-28T02:13:43;101033.19;;;0.25;73.51
75699;BME280;64313;51.018;13.742;2023-02-28T02:16:31;101033.31;;;0.23;73.95
75699;BME280;64313;51.018;13.742;2023-02-28T02:19:02;101037.00;;;0.20;73.58
75699;BME280;64313;51.018;13.742;2023-02-28T02:21:47;101033.59;;;0.18;73.04
75699;BME280;64313;51.018;13.742;2023-02-28T02:27:18;101031.91;;;0.17;72.98
75699;BME280;64313;51.018;13.742;2023-02-28T02:29:59;101032.84;;;0.16;73.54
75699;BME280;64313;51.018;13.742;2023-02-28T02:38:24;101020.75;;;0.14;73.54
75699;BME280;64313;51.018;13.742;2023-02-28T02:41:07;101023.47;;;0.12;73.73
75699;BME280;64313;51.018;13.742;2023-02-28T02:43:40;101026.09;;;0.12;73.87
75699;BME280;64313;51.018;13.742;2023-02-28T02:46:13;101029.69;;;0.11;74.17
75699;BME280;64313;51.018;13.742;2023-02-28T02:48:44;101034.00;;;0.12;73.54
75699;BME280;64313;51.018;13.742;2023-02-28T02:51:17;101038.31;;;0.13;73.70
75699;BME280;64313;51.018;13.742;2023-02-28T02:53:49;101034.00;;;0.12;73.93
75699;BME280;64313;51.018;13.742;2023-02-28T02:56:19;101034.09;;;0.11;74.50
75699;BME280;64313;51.018;13.742;2023-02-28T02:58:49;101039.38;;;0.11;73.94
75699;BME280;64313;51.018;13.742;2023-02-28T03:01:19;101026.22;;;0.11;73.77
75699;BME280;64313;51.018;13.742;2023-02-28T03:03:56;101038.19;;;0.15;73.63
75699;BME280;64313;51.018;13.742;2023-02-28T03:06:24;101046.00;;;0.16;74.11
75699;BME280;64313;51.018;13.742;2023-02-28T03:08:49;101041.69;;;0.15;74.28
75699;BME280;64313;51.018;13.742;2023-02-28T03:11:14;101037.38;;;0.14;74.26
75699;BME280;64313;51.018;13.742;2023-02-28T03:14:00;101037.47;;;0.13;74.09
75699;BME280;64313;51.018;13.742;2023-02-28T03:16:34;101033.16;;;0.12;73.69
75699;BME280;64313;51.018;13.742;2023-02-28T03:24:33;101039.44;;;0.09;74.62
75699;BME280;64313;51.018;13.742;2023-02-28T03:27:07;101034.41;;;0.06;74.73
75699;BME280;64313;51.018;13.742;2023-02-28T03:29:40;101034.41;;;0.06;74.20
75699;BME280;64313;51.018;13.742;2023-02-28T03:32:21;101029.34;;;0.03;74.65
75699;BME280;64313;51.018;13.742;2023-02-28T03:35:09;101027.63;;;0.02;74.77
75699;BME280;64313;51.018;13.742;2023-02-28T03:37:41;101020.72;;;0.01;74.69
75699;BME280;64313;51.018;13.742;2023-02-28T03:40:17;101035.72;;;-0.01;74.33
75699;BME280;64313;51.018;13.742;2023-02-28T03:42:48;101030.56;;;-0.03;74.11
75699;BME280;64313;51.018;13.742;2023-02-28T03:45:18;101032.34;;;-0.03;74.04
75699;BME280;64313;51.018;13.742;2023-02-28T03:50:21;101035.38;;;-0.09;73.99
75699;BME280;64313;51.018;13.742;2023-02-28T03:53:04;101035.38;;;-0.09;73.96
75699;BME280;64313;51.018;13.742;2023-02-28T03:55:37;101034.72;;;-0.13;73.83
75699;BME280;64313;51.018;13.742;2023-02-28T04:01:14;101045.44;;;-0.16;74.01
75699;BME280;64313;51.018;13.742;2023-02-28T04:03:40;101043.75;;;-0.17;73.99
75699;BME280;64313;51.018;13.742;2023-02-28T04:06:08;101045.72;;;-0.20;74.03
75699;BME280;64313;51.018;13.742;2023-02-28T04:08:37;101048.25;;;-0.19;74.34
75699;BME280;64313;51.018;13.742;2023-02-28T04:11:34;101056.22;;;-0.20;73.43
75699;BME280;64313;51.018;13.742;2023-02-28T04:14:01;101052.00;;;-0.23;73.59
75699;BME280;64313;51.018;13.742;2023-02-28T04:16:27;101060.09;;;-0.26;73.61
75699;BME280;64313;51.018;13.742;2023-02-28T04:18:52;101060.28;;;-0.29;73.79
75699;BME280;64313;51.018;13.742;2023-02-28T04:21:18;101056.91;;;-0.31;73.67
75699;BME280;64313;51.018;13.742;2023-02-28T04:23:46;101066.56;;;-0.32;74.02
75699;BME280;64313;51.018;13.742;2023-02-28T04:26:11;101064.16;;;-0.35;74.08
75699;BME280;64313;51.018;13.742;2023-02-28T04:28:37;101058.16;;;-0.37;74.02
75699;BME280;64313;51.018;13.742;2023-02-28T04:31:04;101067.97;;;-0.40;74.05
75699;BME280;64313;51.018;13.742;2023-02-28T04:33:31;101071.56;;;-0.41;74.46
75699;BME280;64313;51.018;13.742;2023-02-28T04:35:58;101070.91;;;-0.45;74.03
75699;BME280;64313;51.018;13.742;2023-02-28T04:38:24;101071.84;;;-0.46;73.69
75699;BME280;64313;51.018;13.742;2023-02-28T04:40:49;101071.09;;;-0.48;73.70
75699;BME280;64313;51.018;13.742;2023-02-28T04:43:14;101072.22;;;-0.52;74.10
75699;BME280;64313;51.018;13.742;2023-02-28T04:45:40;101068.84;;;-0.54;73.66
75699;BME280;64313;51.018;13.742;2023-02-28T04:48:05;101079.44;;;-0.56;73.43
75699;BME280;64313;51.018;13.742;2023-02-28T04:50:30;101069.97;;;-0.58;73.66
75699;BME280;64313;51.018;13.742;2023-02-28T04:52:56;101074.28;;;-0.57;73.61
75699;BME280;64313;51.018;13.742;2023-02-28T04:55:21;101068.28;;;-0.59;73.05
75699;BME280;64313;51.018;13.742;2023-02-28T04:57:47;101071.19;;;-0.64;73.12
75699;BME280;64313;51.018;13.742;2023-02-28T05:00:12;101067.72;;;-0.64;73.33
75699;BME280;64313;51.018;13.742;2023-02-28T05:02:40;101084.50;;;-0.67;73.01
75699;BME280;64313;51.018;13.742;2023-02-28T05:05:05;101077.56;;;-0.68;73.20
75699;BME280;64313;51.018;13.742;2023-02-28T05:07:31;101076.91;;;-0.72;73.39
75699;BME280;64313;51.018;13.742;2023-02-28T05:09:56;101079.53;;;-0.72;73.69
75699;BME280;64313;51.018;13.742;2023-02-28T05:12:21;101078.69;;;-0.72;73.52
75699;BME280;64313;51.018;13.742;2023-02-28T05:14:47;101080.63;;;-0.76;73.57
75699;BME280;64313;51.018;13.742;2023-02-28T05:17:12;101083.25;;;-0.76;73.62
75699;BME280;64313;51.018;13.742;2023-02-28T05:19:37;101076.34;;;-0.77;73.76
75699;BME280;64313;51.018;13.742;2023-02-28T05:22:03;101083.25;;;-0.76;73.74
75699;BME280;64313;51.018;13.742;2023-02-28T05:24:28;101086.84;;;-0.77;73.77
75699;BME280;64313;51.018;13.742;2023-02-28T05:26:54;101079.81;;;-0.76;73.98
75699;BME280;64313;51.018;13.742;2023-02-28T05:29:20;101088.81;;;-0.80;74.08
75699;BME280;64313;51.018;13.742;2023-02-28T05:31:45;101080.06;;;-0.81;74.26
75699;BME280;64313;51.018;13.742;2023-02-28T05:34:11;101083.84;;;-0.85;74.70
75699;BME280;64313;51.018;13.742;2023-02-28T05:36:37;101089.09;;;-0.85;74.28
75699;BME280;64313;51.018;13.742;2023-02-28T05:39:03;101085.72;;;-0.87;74.05
75699;BME280;64313;51.018;13.742;2023-02-28T05:41:30;101096.41;;;-0.90;74.78
75699;BME280;64313;51.018;13.742;2023-02-28T05:43:55;101093.00;;;-0.92;74.65
75699;BME280;64313;51.018;13.742;2023-02-28T05:46:22;101087.84;;;-0.94;74.62
75699;BME280;64313;51.018;13.742;2023-02-28T05:48:48;101087.19;;;-0.97;74.10
75699;BME280;64313;51.018;13.742;2023-02-28T05:51:13;101095.25;;;-1.00;74.53
75699;BME280;64313;51.018;13.742;2023-02-28T05:53:39;101093.72;;;-1.04;74.39
75699;BME280;64313;51.018;13.742;2023-02-28T05:56:05;101094.75;;;-1.07;74.53
75699;BME280;64313;51.018;13.742;2023-02-28T05:58:30;101094.75;;;-1.07;74.80
75699;BME280;64313;51.018;13.742;2023-02-28T06:01:00;101098.41;;;-1.10;74.17
75699;BME280;64313;51.018;13.742;2023-02-28T06:03:26;101096.81;;;-1.12;73.96
75699;BME280;64313;51.018;13.742;2023-02-28T06:05:52;101096.06;;;-1.14;73.86
75699;BME280;64313;51.018;13.742;2023-02-28T06:08:17;101105.78;;;-1.16;73.84
75699;BME280;64313;51.018;13.742;2023-02-28T06:10:43;101112.75;;;-1.15;74.33
75699;BME280;64313;51.018;13.742;2023-02-28T06:13:10;101110.00;;;-1.14;74.27
75699;BME280;64313;51.018;13.742;2023-02-28T06:15:36;101115.34;;;-1.15;74.31
75699;BME280;64313;51.018;13.742;2023-02-28T06:18:01;101107.56;;;-1.17;73.75
75699;BME280;64313;51.018;13.742;2023-02-28T06:20:27;101109.44;;;-1.19;73.72
75699;BME280;64313;51.018;13.742;2023-02-28T06:22:55;101113.75;;;-1.18;74.24
75699;BME280;64313;51.018;13.742;2023-02-28T06:25:21;101121.63;;;-1.18;73.76
75699;BME280;64313;51.018;13.742;2023-02-28T06:27:47;101124.25;;;-1.18;73.66
75699;BME280;64313;51.018;13.742;2023-02-28T06:30:13;101127.72;;;-1.17;73.52
75699;BME280;64313;51.018;13.742;2023-02-28T06:32:38;101132.00;;;-1.16;73.55
75699;BME280;64313;51.018;13.742;2023-02-28T06:35:04;101126.63;;;-1.13;74.12
75699;BME280;64313;51.018;13.742;2023-02-28T06:37:31;101141.34;;;-1.11;73.37
75699;BME280;64313;51.018;13.742;2023-02-28T06:39:56;101143.00;;;-1.10;73.45
75699;BME280;64313;51.018;13.742;2023-02-28T06:42:23;101139.44;;;-1.09;73.77
75699;BME280;64313;51.018;13.742;2023-02-28T06:44:55;101145.38;;;-1.05;73.47
75699;BME280;64313;51.018;13.742;2023-02-28T06:47:20;101150.63;;;-1.05;73.30
75699;BME280;64313;51.018;13.742;2023-02-28T06:49:46;101162.72;;;-1.02;73.94
75699;BME280;64313;51.018;13.742;2023-02-28T06:52:12;101154.66;;;-0.99;73.69
75699;BME280;64313;51.018;13.742;2023-02-28T06:54:37;101157.22;;;-0.98;73.77
75699;BME280;64313;51.018;13.742;2023-02-28T06:57:02;101161.44;;;-0.95;73.77
75699;BME280;64313;51.018;13.742;2023-02-28T06:59:28;101166.69;;;-0.95;73.59
75699;BME280;64313;51.018;13.742;2023-02-28T07:01:53;101166.56;;;-0.94;73.93
75699;BME280;64313;51.018;13.742;2023-02-28T07:04:20;101163.88;;;-0.92;73.83
75699;BME280;64313;51.018;13.742;2023-02-28T07:06:45;101164.72;;;-0.92;73.89
75699;BME280;64313;51.018;13.742;2023-02-28T07:09:10;101164.63;;;-0.90;73.45
75699;BME280;64313;51.018;13.742;2023-02-28T07:11:36;101168.75;;;-0.86;74.03
75699;BME280;64313;51.018;13.742;2023-02-28T07:14:01;101172.25;;;-0.85;73.82
75699;BME280;64313;51.018;13.742;2023-02-28T07:16:27;101176.47;;;-0.83;73.66
75699;BME280;64313;51.018;13.742;2023-02-28T07:18:53;101171.03;;;-0.80;73.96
75699;BME280;64313;51.018;13.742;2023-02-28T07:21:18;101178.53;;;-0.74;73.74
75699;BME280;64313;51.018;13.742;2023-02-28T07:23:44;101173.84;;;-0.69;73.50
75699;BME280;64313;51.018;13.742;2023-02-28T07:26:15;101172.66;;;-0.63;73.49
75699;BME280;64313;51.018;13.742;2023-02-28T07:28:42;101179.34;;;-0.57;73.06
75699;BME280;64313;51.018;13.742;2023-02-28T07:31:08;101172.88;;;-0.52;73.34
75699;BME280;64313;51.018;13.742;2023-02-28T07:33:34;101175.22;;;-0.47;73.07
75699;BME280;64313;51.018;13.742;2023-02-28T07:36:05;101175.78;;;-0.42;73.11
75699;BME280;64313;51.018;13.742;2023-02-28T07:38:34;101172.13;;;-0.39;72.80
75699;BME280;64313;51.018;13.742;2023-02-28T07:40:59;101182.38;;;-0.35;72.81
75699;BME280;64313;51.018;13.742;2023-02-28T07:43:24;101171.66;;;-0.32;73.06
75699;BME280;64313;51.018;13.742;2023-02-28T07:45:50;101181.91;;;-0.27;73.09
75699;BME280;64313;51.018;13.742;2023-02-28T07:48:15;101176.25;;;-0.21;72.96
75699;BME280;64313;51.018;13.742;2023-02-28T07:50:41;101182.91;;;-0.15;72.80
75699;BME280;64313;51.018;13.742;2023-02-28T07:53:06;101180.84;;;-0.10;72.76
75699;BME280;64313;51.018;13.742;2023-02-28T07:55:31;101185.75;;;-0.04;72.10
75699;BME280;64313;51.018;13.742;2023-02-28T07:57:57;101178.78;;;-0.05;72.24
75699;BME280;64313;51.018;13.742;2023-02-28T08:00:23;101183.88;;;-0.02;72.45
75699;BME280;64313;51.018;13.742;2023-02-28T08:02:48;101181.03;;;0.01;72.24
75699;BME280;64313;51.018;13.742;2023-02-28T08:05:14;101184.22;;;0.06;71.93
75699;BME280;64313;51.018;13.742;2023-02-28T08:07:39;101180.38;;;0.12;72.82
75699;BME280;64313;51.018;13.742;2023-02-28T08:10:05;101186.09;;;0.18;71.96
75699;BME280;64313;51.018;13.742;2023-02-28T08:12:31;101182.31;;;0.22;71.74
75699;BME280;64313;51.018;13.742;2023-02-28T08:14:56;101183.75;;;0.28;71.49
75699;BME280;64313;51.018;13.742;2023-02-28T08:17:21;101178.19;;;0.33;71.71
75699;BME280;64313;51.018;13.742;2023-02-28T08:19:47;101183.88;;;0.39;71.26
75699;BME280;64313;51.018;13.742;2023-02-28T08:22:12;101183.69;;;0.42;70.73
75699;BME280;64313;51.018;13.742;2023-02-28T08:24:38;101179.72;;;0.50;70.79
75699;BME280;64313;51.018;13.742;2023-02-28T08:27:05;101189.00;;;0.55;69.51
75699;BME280;64313;51.018;13.742;2023-02-28T08:29:30;101182.81;;;0.56;70.56
75699;BME280;64313;51.018;13.742;2023-02-28T08:31:56;101182.41;;;0.62;70.17
75699;BME280;64313;51.018;13.742;2023-02-28T08:34:22;101182.25;;;0.66;70.74
75699;BME280;64313;51.018;13.742;2023-02-28T08:36:48;101181.09;;;0.70;69.02
75699;BME280;64313;51.018;13.742;2023-02-28T08:39:13;101180.78;;;0.74;69.54
75699;BME280;64313;51.018;13.742;2023-02-28T08:41:38;101184.06;;;0.78;69.04
75699;BME280;64313;51.018;13.742;2023-02-28T08:44:04;101179.53;;;0.80;69.76
75699;BME280;64313;51.018;13.742;2023-02-28T08:46:29;101186.19;;;0.85;69.81
75699;BME280;64313;51.018;13.742;2023-02-28T08:48:55;101185.13;;;0.88;68.84
75699;BME280;64313;51.018;13.742;2023-02-28T08:51:26;101185.69;;;0.93;69.18
75699;BME280;64313;51.018;13.742;2023-02-28T08:53:53;101193.41;;;0.96;69.46
75699;BME280;64313;51.018;13.742;2023-02-28T08:56:19;101181.00;;;0.98;69.09
75699;BME280;64313;51.018;13.742;2023-02-28T08:58:46;101181.63;;;1.02;68.17
75699;BME280;64313;51.018;13.742;2023-02-28T09:01:14;101177.94;;;1.04;67.82
75699;BME280;64313;51.018;13.742;2023-02-28T09:03:40;101181.94;;;1.10;66.81
75699;BME280;64313;51.018;13.742;2023-02-28T09:06:11;101178.25;;;1.13;66.95
75699;BME280;64313;51.018;13.742;2023-02-28T09:08:37;101179.00;;;1.15;67.36
75699;BME280;64313;51.018;13.742;2023-02-28T09:11:03;101183.13;;;1.19;66.27
75699;BME280;64313;51.018;13.742;2023-02-28T09:13:29;101185.44;;;1.23;63.44
75699;BME280;64313;51.018;13.742;2023-02-28T09:15:56;101179.78;;;1.29;66.41
75699;BME280;64313;51.018;13.742;2023-02-28T09:18:24;101183.03;;;1.33;64.84
75699;BME280;64313;51.018;13.742;2023-02-28T09:20:50;101181.69;;;1.40;64.35
75699;BME280;64313;51.018;13.742;2023-02-28T09:23:15;101185.69;;;1.46;64.55
75699;BME280;64313;51.018;13.742;2023-02-28T09:25:49;101186.13;;;1.52;65.58
75699;BME280;64313;51.018;13.742;2023-02-28T09:28:15;101177.91;;;1.57;64.42
75699;BME280;64313;51.018;13.742;2023-02-28T09:30:44;101170.44;;;1.64;64.95
75699;BME280;64313;51.018;13.742;2023-02-28T09:33:10;101174.44;;;1.69;64.33
75699;BME280;64313;51.018;13.742;2023-02-28T09:35:35;101165.25;;;1.75;63.35
75699;BME280;64313;51.018;13.742;2023-02-28T09:38:02;101173.59;;;1.82;63.37
75699;BME280;64313;51.018;13.742;2023-02-28T09:40:28;101164.50;;;1.86;62.97
75699;BME280;64313;51.018;13.742;2023-02-28T09:42:55;101163.97;;;1.93;62.90
75699;BME280;64313;51.018;13.742;2023-02-28T09:45:36;101162.59;;;2.01;61.32
75699;BME280;64313;51.018;13.742;2023-02-28T09:48:10;101171.22;;;2.03;62.05
75699;BME280;64313;51.018;13.742;2023-02-28T09:50:46;101169.00;;;2.09;61.16
75699;BME280;64313;51.018;13.742;2023-02-28T09:53:27;101169.84;;;2.10;60.30
75699;BME280;64313;51.018;13.742;2023-02-28T09:55:58;101170.69;;;2.10;60.05
75699;BME280;64313;51.018;13.742;2023-02-28T09:58:36;101166.91;;;2.14;60.68
75699;BME280;64313;51.018;13.742;2023-02-28T10:04:04;101165.38;;;2.23;59.28
75699;BME280;64313;51.018;13.742;2023-02-28T10:06:43;101165.66;;;2.31;58.91
75699;BME280;64313;51.018;13.742;2023-02-28T10:09:15;101167.59;;;2.29;56.67
75699;BME280;64313;51.018;13.742;2023-02-28T10:11:43;101168.31;;;2.31;57.45
75699;BME280;64313;51.018;13.742;2023-02-28T10:14:16;101164.09;;;2.29;57.80
75699;BME280;64313;51.018;13.742;2023-02-28T10:16:50;101159.69;;;2.29;57.46
75699;BME280;64313;51.018;13.742;2023-02-28T10:19:44;101164.97;;;2.29;55.94
75699;BME280;64313;51.018;13.742;2023-02-28T10:22:25;101170.44;;;2.26;56.98
75699;BME280;64313;51.018;13.742;2023-02-28T10:24:54;101170.75;;;2.22;56.85
75699;BME280;64313;51.018;13.742;2023-02-28T10:27:23;101173.53;;;2.20;56.81
75699;BME280;64313;51.018;13.742;2023-02-28T10:29:51;101173.75;;;2.17;57.04
75699;BME280;64313;51.018;13.742;2023-02-28T10:32:25;101162.47;;;2.15;57.34
75699;BME280;64313;51.018;13.742;2023-02-28T10:37:40;101158.81;;;2.29;57.50
75699;BME280;64313;51.018;13.742;2023-02-28T10:40:29;101163.66;;;2.35;58.39
75699;BME280;64313;51.018;13.742;2023-02-28T10:42:58;101162.88;;;2.46;57.83
75699;BME280;64313;51.018;13.742;2023-02-28T10:45:24;101159.69;;;2.53;57.99
75699;BME280;64313;51.018;13.742;2023-02-28T10:47:58;101159.13;;;2.61;57.30
75699;BME280;64313;51.018;13.742;2023-02-28T10:50:43;101165.03;;;2.65;55.85
75699;BME280;64313;51.018;13.742;2023-02-28T10:56:03;101155.63;;;2.85;56.66
75699;BME280;64313;51.018;13.742;2023-02-28T10:59:05;101156.66;;;2.95;56.88
75699;BME280;64313;51.018;13.742;2023-02-28T11:01:47;101151.31;;;3.08;56.26
75699;BME280;64313;51.018;13.742;2023-02-28T11:07:03;101147.50;;;3.23;55.97
75699;BME280;64313;51.018;13.742;2023-02-28T11:09:35;101147.16;;;3.28;56.40
75699;BME280;64313;51.018;13.742;2023-02-28T11:12:02;101146.69;;;3.34;56.22
75699;BME280;64313;51.018;13.742;2023-02-28T11:14:36;101138.63;;;3.35;54.98
75699;BME280;64313;51.018;13.742;2023-02-28T11:17:22;101136.59;;;3.39;54.80
75699;BME280;64313;51.018;13.742;2023-02-28T11:19:51;101132.03;;;3.41;54.79
75699;BME280;64313;51.018;13.742;2023-02-28T11:22:26;101144.91;;;3.45;55.00
75699;BME280;64313;51.018;13.742;2023-02-28T11:24:55;101132.03;;;3.52;55.80
75699;BME280;64313;51.018;13.742;2023-02-28T11:29:58;101120.66;;;3.63;55.74
75699;BME280;64313;51.018;13.742;2023-02-28T11:32:25;101121.72;;;3.72;56.03
75699;BME280;64313;51.018;13.742;2023-02-28T11:35:14;101122.69;;;3.82;56.51
75699;BME280;64313;51.018;13.742;2023-02-28T11:37:42;101120.16;;;3.92;55.79
75699;BME280;64313;51.018;13.742;2023-02-28T11:46:24;101113.41;;;4.10;53.73
75699;BME280;64313;51.018;13.742;2023-02-28T11:49:06;101109.91;;;4.09;54.00
75699;BME280;64313;51.018;13.742;2023-02-28T11:52:00;101115.09;;;4.11;52.79
75699;BME280;64313;51.018;13.742;2023-02-28T11:54:50;101112.31;;;4.12;54.02
75699;BME280;64313;51.018;13.742;2023-02-28T11:57:45;101114.00;;;4.14;53.06
75699;BME280;64313;51.018;13.742;2023-02-28T12:03:12;101104.25;;;4.14;51.75
75699;BME280;64313;51.018;13.742;2023-02-28T12:06:00;101101.25;;;4.19;54.09
75699;BME280;64313;51.018;13.742;2023-02-28T12:08:55;101094.00;;;4.21;52.95
75699;BME280;64313;51.018;13.742;2023-02-28T12:11:35;101097.88;;;4.17;52.89
75699;BME280;64313;51.018;13.742;2023-02-28T12:16:57;101097.88;;;4.17;51.59
75699;BME280;64313;51.018;13.742;2023-02-28T12:19:48;101102.81;;;4.10;50.99
75699;BME280;64313;51.018;13.742;2023-02-28T12:22:30;101103.66;;;4.10;51.76
75699;BME280;64313;51.018;13.742;2023-02-28T12:25:21;101108.34;;;4.07;51.77
75699;BME280;64313;51.018;13.742;2023-02-28T12:27:50;101092.47;;;4.07;52.29
75699;BME280;64313;51.018;13.742;2023-02-28T12:30:33;101099.22;;;4.00;51.82
75699;BME280;64313;51.018;13.742;2023-02-28T12:33:06;101100.78;;;4.02;52.17
75699;BME280;64313;51.018;13.742;2023-02-28T12:35:54;101106.78;;;4.04;52.53
75699;BME280;64313;51.018;13.742;2023-02-28T12:38:40;101096.69;;;4.09;51.92
75699;BME280;64313;51.018;13.742;2023-02-28T12:41:19;101093.69;;;4.14;52.31
75699;BME280;64313;51.018;13.742;2023-02-28T12:44:28;101094.97;;;4.20;52.31
75699;BME280;64313;51.018;13.742;2023-02-28T12:46:55;101083.66;;;4.18;51.46
75699;BME280;64313;51.018;13.742;2023-02-28T12:49:28;101090.66;;;4.19;52.05
75699;BME280;64313;51.018;13.742;2023-02-28T12:51:57;101087.63;;;4.23;52.56
75699;BME280;64313;51.018;13.742;2023-02-28T13:00:02;101073.31;;;4.26;51.91
75699;BME280;64313;51.018;13.742;2023-02-28T13:05:38;101082.72;;;4.19;51.73
75699;BME280;64313;51.018;13.742;2023-02-28T13:08:22;101078.84;;;4.23;52.08
75699;BME280;64313;51.018;13.742;2023-02-28T13:10:52;101073.31;;;4.26;52.23
75699;BME280;64313;51.018;13.742;2023-02-28T13:13:25;101072.81;;;4.32;52.44
75699;BME280;64313;51.018;13.742;2023-02-28T13:15:58;101078.81;;;4.34;52.22
75699;BME280;64313;51.018;13.742;2023-02-28T13:18:51;101070.50;;;4.39;52.20
75699;BME280;64313;51.018;13.742;2023-02-28T13:21:29;101070.38;;;4.40;51.26
75699;BME280;64313;51.018;13.742;2023-02-28T13:29:01;101069.03;;;4.46;51.34
75699;BME280;64313;51.018;13.742;2023-02-28T13:31:29;101070.50;;;4.39;51.39
75699;BME280;64313;51.018;13.742;2023-02-28T13:36:25;101072.75;;;4.43;52.19
75699;BME280;64313;51.018;13.742;2023-02-28T13:38:53;101068.66;;;4.50;52.25
75699;BME280;64313;51.018;13.742;2023-02-28T13:44:21;101063.81;;;4.55;53.15
75699;BME280;64313;51.018;13.742;2023-02-28T13:52:11;101056.13;;;4.52;50.73
75699;BME280;64313;51.018;13.742;2023-02-28T13:54:54;101050.88;;;4.41;50.18
75699;BME280;64313;51.018;13.742;2023-02-28T13:57:30;101054.38;;;4.42;52.02
75699;BME280;64313;51.018;13.742;2023-02-28T14:00:07;101053.53;;;4.41;52.08
75699;BME280;64313;51.018;13.742;2023-02-28T14:05:20;101053.44;;;4.31;51.16
75699;BME280;64313;51.018;13.742;2023-02-28T14:07:57;101057.66;;;4.34;52.27
75699;BME280;64313;51.018;13.742;2023-02-28T14:10:28;101044.41;;;4.34;53.28
75699;BME280;64313;51.018;13.742;2023-02-28T14:13:01;101042.88;;;4.31;52.80
75699;BME280;64313;51.018;13.742;2023-02-28T14:17:59;101038.75;;;4.39;53.16